sensor_id;sensor_type;location;lat;lon;timestamp;pressure;altitude;pressure_sealevel;temperature;humidity
43757;BME280;73222;41.866;12.462;2024-01-06T00:00:20;100066.53;;;12.96;100.00
43757;BME280;73222;41.866;12.462;2024-01-06T00:02:48;100058.59;;;13.03;100.00
43757;BME280;73222;41.866;12.462;2024-01-06T00:05:14;100076.78;;;13.03;100.00
43757;BME280;73222;41.866;12.462;2024-01-06T00:07:39;100062.09;;;13.02;100.00
43757;BME280;73222;41.866;12.462;2024-01-06T00:10:06;100063.78;;;13.07;100.00
43757;BME280;73222;41.866;12.462;2024-01-06T00:12:31;100063.78;;;13.07;100.00
43757;BME280;73222;41.866;12.462;2024-01-06T00:14:56;100063.78;;;13.07;100.00
43757;BME280;73222;41.866;12.462;2024-01-06T00:17:22;100063.81;;;13.03;100.00
43757;BME280;73222;41.866;12.462;2024-01-06T00:19:47;100075.94;;;13.04;100.00
43757;BME280;73222;41.866;12.462;2024-01-06T00:22:17;100067.25;;;13.05;100.00
43757;BME280;73222;41.866;12.462;2024-01-06T00:24:42;100061.19;;;13.07;100.00
43757;BME280;73222;41.866;12.462;2024-01-06T00:27:07;100061.19;;;13.07;100.00
43757;BME280;73222;41.866;12.462;2024-01-06T00:29:33;100071.59;;;13.03;100.00
43757;BME280;73222;41.866;12.462;2024-01-06T00:31:58;100061.25;;;13.00;100.00
43757;BME280;73222;41.866;12.462;2024-01-06T00:34:24;100055.19;;;13.01;100.00
43757;BME280;73222;41.866;12.462;2024-01-06T00:36:49;100052.66;;;12.97;100.00
43757;BME280;73222;41.866;12.462;2024-01-06T00:39:14;100057.91;;;12.94;100.00
43757;BME280;73222;41.866;12.462;2024-01-06T00:41:40;100050.13;;;12.92;100.00
43757;BME280;73222;41.866;12.462;2024-01-06T00:44:05;100049.25;;;12.93;100.00
43757;BME280;73222;41.866;12.462;2024-01-06T00:46:30;100051.84;;;12.95;100.00
43757;BME280;73222;41.866;12.462;2024-01-06T00:48:56;100060.47;;;12.95;100.00
43757;BME280;73222;41.866;12.462;2024-01-06T00:51:21;100054.44;;;12.93;100.00
43757;BME280;73222;41.866;12.462;2024-01-06T00:53:47;100053.53;;;12.96;100.00
43757;BME280;73222;41.866;12.462;2024-01-06T00:56:12;100053.56;;;12.94;100.00
43757;BME280;73222;41.866;12.462;2024-01-06T00:58:38;100053.56;;;12.94;100.00
43757;BME280;73222;41.866;12.462;2024-01-06T01:01:03;100052.66;;;12.95;100.00
43757;BME280;73222;41.866;12.462;2024-01-06T01:03:29;100050.13;;;12.92;100.00
43757;BME280;73222;41.866;12.462;2024-01-06T01:05:54;100055.31;;;12.92;100.00
43757;BME280;73222;41.866;12.462;2024-01-06T01:08:19;100051.84;;;12.93;100.00
43757;BME280;73222;41.866;12.462;2024-01-06T01:10:45;100052.66;;;12.95;100.00
43757;BME280;73222;41.866;12.462;2024-01-06T01:13:10;100053.56;;;12.94;100.00
43757;BME280;73222;41.866;12.462;2024-01-06T01:15:36;100049.22;;;12.95;100.00
43757;BME280;73222;41.866;12.462;2024-01-06T01:18:01;100048.34;;;12.97;100.00
43757;BME280;73222;41.866;12.462;2024-01-06T01:20:26;100027.50;;;13.00;100.00
43757;BME280;73222;41.866;12.462;2024-01-06T01:22:52;100042.25;;;12.98;100.00
43757;BME280;73222;41.866;12.462;2024-01-06T01:25:17;100012.72;;;13.02;100.00
43757;BME280;73222;41.866;12.462;2024-01-06T01:27:42;100004.94;;;13.02;100.00
43757;BME280;73222;41.866;12.462;2024-01-06T01:30:09;99998.84;;;13.05;100.00
43757;BME280;73222;41.866;12.462;2024-01-06T01:32:34;99980.63;;;13.07;100.00
43757;BME280;73222;41.866;12.462;2024-01-06T01:35:00;99998.78;;;13.08;100.00
43757;BME280;73222;41.866;12.462;2024-01-06T01:37:25;99990.13;;;13.08;100.00
43757;BME280;73222;41.866;12.462;2024-01-06T01:39:50;99986.72;;;13.05;100.00
43757;BME280;73222;41.866;12.462;2024-01-06T01:42:16;99967.66;;;13.05;100.00
43757;BME280;73222;41.866;12.462;2024-01-06T01:44:41;99962.47;;;13.03;100.00
43757;BME280;73222;41.866;12.462;2024-01-06T01:47:07;99961.66;;;13.01;100.00
43757;BME280;73222;41.866;12.462;2024-01-06T01:49:32;99953.03;;;12.99;100.00
43757;BME280;73222;41.866;12.462;2024-01-06T01:52:00;99957.34;;;13.00;100.00
43757;BME280;73222;41.866;12.462;2024-01-06T01:54:27;99965.13;;;13.00;100.00
43757;BME280;73222;41.866;12.462;2024-01-06T01:56:53;99976.41;;;13.01;100.00
43757;BME280;73222;41.866;12.462;2024-01-06T01:59:18;99985.91;;;13.00;100.00
43757;BME280;73222;41.866;12.462;2024-01-06T02:01:45;99989.31;;;13.05;100.00
43757;BME280;73222;41.866;12.462;2024-01-06T02:04:11;99982.44;;;13.01;100.00
43757;BME280;73222;41.866;12.462;2024-01-06T02:06:37;99968.56;;;13.02;100.00
43757;BME280;73222;41.866;12.462;2024-01-06T02:09:02;99978.09;;;13.02;100.00
43757;BME280;73222;41.866;12.462;2024-01-06T02:11:28;99968.56;;;13.02;100.00
43757;BME280;73222;41.866;12.462;2024-01-06T02:13:53;99967.66;;;13.05;100.00
43757;BME280;73222;41.866;12.462;2024-01-06T02:16:18;99968.53;;;13.05;100.00
43757;BME280;73222;41.866;12.462;2024-01-06T02:18:44;99963.31;;;13.05;100.00
43757;BME280;73222;41.866;12.462;2024-01-06T02:21:09;99956.44;;;13.01;100.00
43757;BME280;73222;41.866;12.462;2024-01-06T02:23:36;99961.72;;;12.98;100.00
43757;BME280;73222;41.866;12.462;2024-01-06T02:26:02;99967.72;;;13.00;100.00
43757;BME280;73222;41.866;12.462;2024-01-06T02:28:28;99959.88;;;13.03;100.00
43757;BME280;73222;41.866;12.462;2024-01-06T02:30:53;99967.72;;;13.02;100.00
43757;BME280;73222;41.866;12.462;2024-01-06T02:33:18;99958.16;;;13.02;100.00
43757;BME280;73222;41.866;12.462;2024-01-06T02:35:45;99949.44;;;13.07;100.00
43757;BME280;73222;41.866;12.462;2024-01-06T02:38:11;99951.25;;;13.01;100.00
43757;BME280;73222;41.866;12.462;2024-01-06T02:40:36;99945.16;;;13.02;100.00
43757;BME280;73222;41.866;12.462;2024-01-06T02:43:02;99940.88;;;13.01;100.00
43757;BME280;73222;41.866;12.462;2024-01-06T02:45:27;99945.16;;;13.02;100.00
43757;BME280;73222;41.866;12.462;2024-01-06T02:47:53;99941.66;;;13.07;100.00
43757;BME280;73222;41.866;12.462;2024-01-06T02:50:18;99939.91;;;13.07;100.00
43757;BME280;73222;41.866;12.462;2024-01-06T02:52:44;99927.78;;;13.06;100.00
43757;BME280;73222;41.866;12.462;2024-01-06T02:55:10;99933.88;;;13.03;100.00
43757;BME280;73222;41.866;12.462;2024-01-06T02:57:36;99930.47;;;13.01;100.00
43757;BME280;73222;41.866;12.462;2024-01-06T03:00:02;99935.56;;;13.08;100.00
43757;BME280;73222;41.866;12.462;2024-01-06T03:02:28;99933.03;;;13.04;100.00
43757;BME280;73222;41.866;12.462;2024-01-06T03:04:54;99933.88;;;13.03;100.00
43757;BME280;73222;41.866;12.462;2024-01-06T03:07:20;99923.47;;;13.07;100.00
43757;BME280;73222;41.866;12.462;2024-01-06T03:09:45;99926.94;;;13.05;100.00
43757;BME280;73222;41.866;12.462;2024-01-06T03:12:11;99917.47;;;13.03;100.00
43757;BME280;73222;41.866;12.462;2024-01-06T03:14:37;99925.28;;;13.01;100.00
43757;BME280;73222;41.866;12.462;2024-01-06T03:17:03;99926.19;;;12.99;100.00
43757;BME280;73222;41.866;12.462;2024-01-06T03:19:29;99924.44;;;13.01;100.00
43757;BME280;73222;41.866;12.462;2024-01-06T03:21:55;99924.50;;;12.96;100.00
43757;BME280;73222;41.866;12.462;2024-01-06T03:24:24;99914.97;;;12.95;100.00
43757;BME280;73222;41.866;12.462;2024-01-06T03:26:50;99921.03;;;12.97;100.00
43757;BME280;73222;41.866;12.462;2024-01-06T03:29:16;99902.00;;;12.95;100.00
43757;BME280;73222;41.866;12.462;2024-01-06T03:31:43;99915.91;;;12.93;100.00
43757;BME280;73222;41.866;12.462;2024-01-06T03:34:08;99906.44;;;12.90;100.00
43757;BME280;73222;41.866;12.462;2024-01-06T03:36:34;99896.03;;;12.90;100.00
43757;BME280;73222;41.866;12.462;2024-01-06T03:38:59;99911.66;;;12.87;100.00
43757;BME280;73222;41.866;12.462;2024-01-06T03:41:25;99906.53;;;12.84;100.00
43757;BME280;73222;41.866;12.462;2024-01-06T03:43:50;99910.97;;;12.77;100.00
43757;BME280;73222;41.866;12.462;2024-01-06T03:46:15;99911.00;;;12.75;100.00
43757;BME280;73222;41.866;12.462;2024-01-06T03:48:41;99901.50;;;12.74;100.00
43757;BME280;73222;41.866;12.462;2024-01-06T03:51:07;99902.41;;;12.70;100.00
43757;BME280;73222;41.866;12.462;2024-01-06T03:53:32;99884.34;;;12.64;100.00
43757;BME280;73222;41.866;12.462;2024-01-06T03:55:58;99893.00;;;12.63;100.00
43757;BME280;73222;41.866;12.462;2024-01-06T03:58:23;99879.19;;;12.61;100.00
43757;BME280;73222;41.866;12.462;2024-01-06T04:00:49;99880.97;;;12.59;100.00
43757;BME280;73222;41.866;12.462;2024-01-06T04:03:14;99874.97;;;12.55;100.00
43757;BME280;73222;41.866;12.462;2024-01-06T04:05:40;99868.97;;;12.52;100.00
43757;BME280;73222;41.866;12.462;2024-01-06T04:08:05;99862.94;;;12.49;100.00
43757;BME280;73222;41.866;12.462;2024-01-06T04:10:31;99862.06;;;12.49;100.00
43757;BME280;73222;41.866;12.462;2024-01-06T04:12:56;99855.19;;;12.46;100.00
43757;BME280;73222;41.866;12.462;2024-01-06T04:15:21;99856.97;;;12.44;100.00
43757;BME280;73222;41.866;12.462;2024-01-06T04:17:48;99848.28;;;12.45;100.00
43757;BME280;73222;41.866;12.462;2024-01-06T04:20:14;99839.63;;;12.46;100.00
43757;BME280;73222;41.866;12.462;2024-01-06T04:22:39;99824.09;;;12.43;100.00
43757;BME280;73222;41.866;12.462;2024-01-06T04:25:05;99812.03;;;12.39;100.00
43757;BME280;73222;41.866;12.462;2024-01-06T04:27:30;99819.00;;;12.37;100.00
43757;BME280;73222;41.866;12.462;2024-01-06T04:29:56;99800.03;;;12.35;100.00
43757;BME280;73222;41.866;12.462;2024-01-06T04:32:21;99808.69;;;12.34;100.00
43757;BME280;73222;41.866;12.462;2024-01-06T04:34:47;99796.56;;;12.34;100.00
43757;BME280;73222;41.866;12.462;2024-01-06T04:37:12;99787.97;;;12.31;100.00
43757;BME280;73222;41.866;12.462;2024-01-06T04:39:37;99784.50;;;12.32;100.00
43757;BME280;73222;41.866;12.462;2024-01-06T04:42:04;99777.56;;;12.31;100.00
43757;BME280;73222;41.866;12.462;2024-01-06T04:44:29;99775.78;;;12.36;100.00
43757;BME280;73222;41.866;12.462;2024-01-06T04:46:55;99772.28;;;12.37;100.00
43757;BME280;73222;41.866;12.462;2024-01-06T04:49:20;99774.03;;;12.36;100.00
43757;BME280;73222;41.866;12.462;2024-01-06T04:51:47;99767.06;;;12.40;100.00
43757;BME280;73222;41.866;12.462;2024-01-06T04:54:14;99777.47;;;12.39;100.00
43757;BME280;73222;41.866;12.462;2024-01-06T04:56:39;99773.97;;;12.41;100.00
43757;BME280;73222;41.866;12.462;2024-01-06T04:59:05;99766.19;;;12.40;100.00
43757;BME280;73222;41.866;12.462;2024-01-06T05:01:31;99763.53;;;12.43;100.00
43757;BME280;73222;41.866;12.462;2024-01-06T05:03:57;99754.91;;;12.42;100.00
43757;BME280;73222;41.866;12.462;2024-01-06T05:06:23;99750.59;;;12.41;100.00
43757;BME280;73222;41.866;12.462;2024-01-06T05:08:48;99744.56;;;12.39;100.00
43757;BME280;73222;41.866;12.462;2024-01-06T05:11:14;99744.56;;;12.39;100.00
43757;BME280;73222;41.866;12.462;2024-01-06T05:13:39;99749.66;;;12.45;100.00
43757;BME280;73222;41.866;12.462;2024-01-06T05:16:05;99749.63;;;12.48;100.00
43757;BME280;73222;41.866;12.462;2024-01-06T05:18:30;99737.47;;;12.50;100.00
43757;BME280;73222;41.866;12.462;2024-01-06T05:20:56;99741.66;;;12.56;100.00
43757;BME280;73222;41.866;12.462;2024-01-06T05:23:22;99740.81;;;12.56;100.00
43757;BME280;73222;41.866;12.462;2024-01-06T05:25:47;99732.09;;;12.60;100.00
43757;BME280;73222;41.866;12.462;2024-01-06T05:28:12;99736.38;;;12.61;100.00
43757;BME280;73222;41.866;12.462;2024-01-06T05:30:39;99741.56;;;12.62;100.00
43757;BME280;73222;41.866;12.462;2024-01-06T05:33:04;99744.00;;;12.70;100.00
43757;BME280;73222;41.866;12.462;2024-01-06T05:35:30;99737.16;;;12.66;100.00
43757;BME280;73222;41.866;12.462;2024-01-06T05:37:55;99740.69;;;12.63;100.00
43757;BME280;73222;41.866;12.462;2024-01-06T05:40:21;99734.63;;;12.63;100.00
43757;BME280;73222;41.866;12.462;2024-01-06T05:42:46;99731.16;;;12.64;100.00
43757;BME280;73222;41.866;12.462;2024-01-06T05:45:12;99732.03;;;12.63;100.00
43757;BME280;73222;41.866;12.462;2024-01-06T05:47:40;99737.22;;;12.63;100.00
43757;BME280;73222;41.866;12.462;2024-01-06T05:50:06;99750.16;;;12.66;100.00
43757;BME280;73222;41.866;12.462;2024-01-06T05:52:34;99735.47;;;12.65;100.00
43757;BME280;73222;41.866;12.462;2024-01-06T05:54:59;99734.66;;;12.61;100.00
43757;BME280;73222;41.866;12.462;2024-01-06T05:57:25;99742.59;;;12.54;100.00
43757;BME280;73222;41.866;12.462;2024-01-06T05:59:50;99726.28;;;12.47;100.00
43757;BME280;73222;41.866;12.462;2024-01-06T06:02:16;99725.53;;;12.40;100.00
43757;BME280;73222;41.866;12.462;2024-01-06T06:04:41;99750.78;;;12.32;100.00
43757;BME280;73222;41.866;12.462;2024-01-06T06:07:06;99731.81;;;12.27;100.00
43757;BME280;73222;41.866;12.462;2024-01-06T06:09:32;99730.06;;;12.27;100.00
43757;BME280;73222;41.866;12.462;2024-01-06T06:11:59;99735.34;;;12.22;100.00
43757;BME280;73222;41.866;12.462;2024-01-06T06:14:25;99744.06;;;12.20;100.00
43757;BME280;73222;41.866;12.462;2024-01-06T06:16:50;99739.72;;;12.19;100.00
43757;BME280;73222;41.866;12.462;2024-01-06T06:19:15;99745.03;;;12.11;100.00
43757;BME280;73222;41.866;12.462;2024-01-06T06:21:42;99741.66;;;12.06;100.00
43757;BME280;73222;41.866;12.462;2024-01-06T06:24:08;99742.50;;;12.08;100.00
43757;BME280;73222;41.866;12.462;2024-01-06T06:26:45;99750.31;;;12.05;100.00
43757;BME280;73222;41.866;12.462;2024-01-06T06:29:10;99765.91;;;12.05;100.00
43757;BME280;73222;41.866;12.462;2024-01-06T06:31:36;99760.69;;;12.08;100.00
43757;BME280;73222;41.866;12.462;2024-01-06T06:34:01;99766.75;;;12.02;100.00
43757;BME280;73222;41.866;12.462;2024-01-06T06:36:26;99761.69;;;11.96;100.00
43757;BME280;73222;41.866;12.462;2024-01-06T06:38:52;99770.31;;;11.96;100.00
43757;BME280;73222;41.866;12.462;2024-01-06T06:41:18;99776.38;;;11.95;100.00
43757;BME280;73222;41.866;12.462;2024-01-06T06:43:45;99785.09;;;11.91;100.00
43757;BME280;73222;41.866;12.462;2024-01-06T06:46:10;99785.09;;;11.91;100.00
43757;BME280;73222;41.866;12.462;2024-01-06T06:48:35;99773.84;;;11.92;100.00
43757;BME280;73222;41.866;12.462;2024-01-06T06:51:01;99774.78;;;11.87;100.00
43757;BME280;73222;41.866;12.462;2024-01-06T06:53:27;99767.94;;;11.84;100.00
43757;BME280;73222;41.866;12.462;2024-01-06T06:55:52;99773.06;;;11.87;100.00
43757;BME280;73222;41.866;12.462;2024-01-06T06:58:18;99778.25;;;11.87;100.00
43757;BME280;73222;41.866;12.462;2024-01-06T07:00:43;99786.91;;;11.86;100.00
43757;BME280;73222;41.866;12.462;2024-01-06T07:03:09;99789.44;;;11.91;100.00
43757;BME280;73222;41.866;12.462;2024-01-06T07:05:34;99794.59;;;11.92;100.00
43757;BME280;73222;41.866;12.462;2024-01-06T07:08:00;99800.66;;;11.91;100.00
43757;BME280;73222;41.866;12.462;2024-01-06T07:10:26;99791.13;;;11.93;100.00
43757;BME280;73222;41.866;12.462;2024-01-06T07:12:51;99803.22;;;11.93;100.00
43757;BME280;73222;41.866;12.462;2024-01-06T07:15:16;99801.59;;;11.87;100.00
43757;BME280;73222;41.866;12.462;2024-01-06T07:17:42;99788.69;;;11.81;100.00
43757;BME280;73222;41.866;12.462;2024-01-06T07:20:07;99786.19;;;11.76;100.00
43757;BME280;73222;41.866;12.462;2024-01-06T07:22:33;99779.28;;;11.77;100.00
43757;BME280;73222;41.866;12.462;2024-01-06T07:25:00;99793.97;;;11.75;100.00
43757;BME280;73222;41.866;12.462;2024-01-06T07:27:28;99771.56;;;11.71;100.00
43757;BME280;73222;41.866;12.462;2024-01-06T07:29:53;99787.19;;;11.67;100.00
43757;BME280;73222;41.866;12.462;2024-01-06T07:32:21;99932.44;;;11.58;100.00
43757;BME280;73222;41.866;12.462;2024-01-06T07:34:46;99773.53;;;11.53;100.00
43757;BME280;73222;41.866;12.462;2024-01-06T07:37:12;99763.19;;;11.53;100.00
43757;BME280;73222;41.866;12.462;2024-01-06T07:39:37;99768.38;;;11.53;100.00
43757;BME280;73222;41.866;12.462;2024-01-06T07:42:03;99767.47;;;11.56;100.00
43757;BME280;73222;41.866;12.462;2024-01-06T07:44:28;99760.53;;;11.56;100.00
43757;BME280;73222;41.866;12.462;2024-01-06T07:46:54;99761.34;;;11.58;100.00
43757;BME280;73222;41.866;12.462;2024-01-06T07:49:19;99765.66;;;11.59;100.00
43757;BME280;73222;41.866;12.462;2024-01-06T07:51:45;99761.34;;;11.61;100.00
43757;BME280;73222;41.866;12.462;2024-01-06T07:54:10;99768.22;;;11.62;100.00
43757;BME280;73222;41.866;12.462;2024-01-06T07:56:36;99766.47;;;11.64;100.00
43757;BME280;73222;41.866;12.462;2024-01-06T07:59:03;99770.81;;;11.64;100.00
43757;BME280;73222;41.866;12.462;2024-01-06T08:01:29;99787.19;;;11.67;100.00
43757;BME280;73222;41.866;12.462;2024-01-06T08:03:55;99785.41;;;11.70;100.00
43757;BME280;73222;41.866;12.462;2024-01-06T08:06:20;99789.78;;;11.67;100.00
43757;BME280;73222;41.866;12.462;2024-01-06T08:08:46;99789.72;;;11.69;100.00
43757;BME280;73222;41.866;12.462;2024-01-06T08:11:12;99778.47;;;11.72;100.00
43757;BME280;73222;41.866;12.462;2024-01-06T08:13:37;99785.28;;;11.79;100.00
43757;BME280;73222;41.866;12.462;2024-01-06T08:16:03;99785.28;;;11.79;100.00
43757;BME280;73222;41.866;12.462;2024-01-06T08:18:28;99785.22;;;11.82;100.00
43757;BME280;73222;41.866;12.462;2024-01-06T08:20:54;99774.03;;;11.80;100.00
43757;BME280;73222;41.866;12.462;2024-01-06T08:23:19;99767.13;;;11.79;100.00
43757;BME280;73222;41.866;12.462;2024-01-06T08:25:46;99754.16;;;11.79;100.00
43757;BME280;73222;41.866;12.462;2024-01-06T08:28:11;99748.09;;;11.80;100.00
43757;BME280;73222;41.866;12.462;2024-01-06T08:30:37;99742.84;;;11.83;100.00
43757;BME280;73222;41.866;12.462;2024-01-06T08:33:03;99738.53;;;11.82;100.00
43757;BME280;73222;41.866;12.462;2024-01-06T08:35:28;99736.91;;;11.75;100.00
43757;BME280;73222;41.866;12.462;2024-01-06T08:37:53;99729.94;;;11.80;100.00
43757;BME280;73222;41.866;12.462;2024-01-06T08:40:19;99731.66;;;11.81;100.00
43757;BME280;73222;41.866;12.462;2024-01-06T08:42:44;99738.66;;;11.76;100.00
43757;BME280;73222;41.866;12.462;2024-01-06T08:45:09;99735.34;;;11.67;100.00
43757;BME280;73222;41.866;12.462;2024-01-06T08:47:35;99723.28;;;11.63;100.00
43757;BME280;73222;41.866;12.462;2024-01-06T08:50:00;99720.63;;;11.68;100.00
43757;BME280;73222;41.866;12.462;2024-01-06T08:52:26;99716.41;;;11.59;100.00
43757;BME280;73222;41.866;12.462;2024-01-06T08:54:51;99714.69;;;11.58;100.00
43757;BME280;73222;41.866;12.462;2024-01-06T08:57:16;99711.19;;;11.62;100.00
43757;BME280;73222;41.866;12.462;2024-01-06T08:59:42;99707.78;;;11.60;100.00
43757;BME280;73222;41.866;12.462;2024-01-06T09:02:10;99706.81;;;11.67;100.00
43757;BME280;73222;41.866;12.462;2024-01-06T09:04:35;99697.34;;;11.63;100.00
43757;BME280;73222;41.866;12.462;2024-01-06T09:07:01;99686.91;;;11.70;100.00
43757;BME280;73222;41.866;12.462;2024-01-06T09:09:26;99688.59;;;11.71;100.00
43757;BME280;73222;41.866;12.462;2024-01-06T09:11:53;99685.03;;;11.79;100.00
43757;BME280;73222;41.866;12.462;2024-01-06T09:14:18;99681.63;;;11.74;100.00
43757;BME280;73222;41.866;12.462;2024-01-06T09:16:44;99681.63;;;11.76;100.00
43757;BME280;73222;41.866;12.462;2024-01-06T09:19:09;99680.75;;;11.74;100.00
43757;BME280;73222;41.866;12.462;2024-01-06T09:21:34;99672.09;;;11.76;100.00
43757;BME280;73222;41.866;12.462;2024-01-06T09:24:01;99675.69;;;11.67;100.00
43757;BME280;73222;41.866;12.462;2024-01-06T09:26:34;99673.03;;;11.71;100.00
43757;BME280;73222;41.866;12.462;2024-01-06T09:29:00;99667.81;;;11.74;100.00
43757;BME280;73222;41.866;12.462;2024-01-06T09:31:26;99660.97;;;11.70;100.00
43757;BME280;73222;41.866;12.462;2024-01-06T09:33:51;99665.28;;;11.69;100.00
43757;BME280;73222;41.866;12.462;2024-01-06T09:36:16;99664.53;;;11.62;100.00
43757;BME280;73222;41.866;12.462;2024-01-06T09:38:43;99670.72;;;11.53;100.00
43757;BME280;73222;41.866;12.462;2024-01-06T09:41:08;99676.84;;;11.49;100.00
43757;BME280;73222;41.866;12.462;2024-01-06T09:43:33;99675.16;;;11.45;100.00
43757;BME280;73222;41.866;12.462;2024-01-06T09:46:09;99669.97;;;11.47;100.00
43757;BME280;73222;41.866;12.462;2024-01-06T09:48:40;99666.47;;;11.48;100.00
43757;BME280;73222;41.866;12.462;2024-01-06T09:51:10;99682.84;;;11.51;100.00
43757;BME280;73222;41.866;12.462;2024-01-06T09:53:36;99682.69;;;11.62;100.00
43757;BME280;73222;41.866;12.462;2024-01-06T09:56:06;99693.88;;;11.64;100.00
43757;BME280;73222;41.866;12.462;2024-01-06T09:58:33;99688.69;;;11.64;100.00
43757;BME280;73222;41.866;12.462;2024-01-06T10:01:00;99694.78;;;11.62;100.00
43757;BME280;73222;41.866;12.462;2024-01-06T10:03:26;99680.09;;;11.62;100.00
43757;BME280;73222;41.866;12.462;2024-01-06T10:05:52;99685.13;;;11.70;100.00
43757;BME280;73222;41.866;12.462;2024-01-06T10:08:18;99677.16;;;11.84;100.00
43757;BME280;73222;41.866;12.462;2024-01-06T10:10:44;99672.66;;;11.94;100.00
43757;BME280;73222;41.866;12.462;2024-01-06T10:13:10;99665.44;;;12.15;100.00
43757;BME280;73222;41.866;12.462;2024-01-06T10:15:35;99657.56;;;12.18;100.00
43757;BME280;73222;41.866;12.462;2024-01-06T10:18:01;99649.59;;;12.29;100.00
43757;BME280;73222;41.866;12.462;2024-01-06T10:20:28;99645.88;;;12.42;100.00
43757;BME280;73222;41.866;12.462;2024-01-06T10:22:53;99639.00;;;12.41;100.00
43757;BME280;73222;41.866;12.462;2024-01-06T10:25:19;99636.19;;;12.52;100.00
43757;BME280;73222;41.866;12.462;2024-01-06T10:27:48;99626.09;;;12.81;100.00
43757;BME280;73222;41.866;12.462;2024-01-06T10:30:13;99626.50;;;13.00;100.00
43757;BME280;73222;41.866;12.462;2024-01-06T10:32:43;99620.13;;;13.15;100.00
43757;BME280;73222;41.866;12.462;2024-01-06T10:35:09;99607.28;;;13.09;100.00
43757;BME280;73222;41.866;12.462;2024-01-06T10:37:35;99597.66;;;13.14;100.00
43757;BME280;73222;41.866;12.462;2024-01-06T10:40:14;99591.16;;;12.94;100.00
43757;BME280;73222;41.866;12.462;2024-01-06T10:42:41;99580.28;;;12.76;100.00
43757;BME280;73222;41.866;12.462;2024-01-06T10:45:09;99583.88;;;12.71;100.00
43757;BME280;73222;41.866;12.462;2024-01-06T10:47:38;99609.88;;;12.68;100.00
43757;BME280;73222;41.866;12.462;2024-01-06T10:50:04;99593.13;;;12.42;100.00
43757;BME280;73222;41.866;12.462;2024-01-06T10:52:31;99574.06;;;12.43;100.00
43757;BME280;73222;41.866;12.462;2024-01-06T10:54:57;99552.50;;;12.39;100.00
43757;BME280;73222;41.866;12.462;2024-01-06T10:57:23;99547.19;;;12.45;100.00
43757;BME280;73222;41.866;12.462;2024-01-06T10:59:51;99545.47;;;12.44;100.00
43757;BME280;73222;41.866;12.462;2024-01-06T11:02:17;99529.66;;;12.57;100.00
43757;BME280;73222;41.866;12.462;2024-01-06T11:04:46;99523.91;;;12.82;100.00
43757;BME280;73222;41.866;12.462;2024-01-06T11:07:14;99526.81;;;13.05;100.00
43757;BME280;73222;41.866;12.462;2024-01-06T11:09:48;99508.84;;;13.31;100.00
43757;BME280;73222;41.866;12.462;2024-01-06T11:12:17;99496.28;;;13.50;100.00
43757;BME280;73222;41.866;12.462;2024-01-06T11:14:42;99500.75;;;13.78;100.00
43757;BME280;73222;41.866;12.462;2024-01-06T11:17:07;99494.69;;;14.09;100.00
43757;BME280;73222;41.866;12.462;2024-01-06T11:24:51;99443.50;;;15.46;100.00
43757;BME280;73222;41.866;12.462;2024-01-06T11:27:18;99396.38;;;16.23;100.00
43757;BME280;73222;41.866;12.462;2024-01-06T11:29:44;99359.50;;;16.73;100.00
43757;BME280;73222;41.866;12.462;2024-01-06T11:34:51;99291.63;;;16.72;100.00
43757;BME280;73222;41.866;12.462;2024-01-06T11:42:48;99248.72;;;16.97;100.00
43757;BME280;73222;41.866;12.462;2024-01-06T11:45:14;99238.38;;;17.34;100.00
43757;BME280;73222;41.866;12.462;2024-01-06T11:47:40;99218.03;;;18.14;100.00
43757;BME280;73222;41.866;12.462;2024-01-06T11:50:12;99202.59;;;18.43;100.00
43757;BME280;73222;41.866;12.462;2024-01-06T11:52:38;99175.44;;;18.62;100.00
43757;BME280;73222;41.866;12.462;2024-01-06T11:55:05;99172.00;;;18.77;100.00
43757;BME280;73222;41.866;12.462;2024-01-06T11:57:32;99144.19;;;20.16;100.00
43757;BME280;73222;41.866;12.462;2024-01-06T11:59:58;99138.81;;;21.33;100.00
43757;BME280;73222;41.866;12.462;2024-01-06T12:02:23;99127.03;;;22.06;100.00
43757;BME280;73222;41.866;12.462;2024-01-06T12:04:50;99121.09;;;21.90;100.00
43757;BME280;73222;41.866;12.462;2024-01-06T12:07:16;99113.94;;;22.18;100.00
43757;BME280;73222;41.866;12.462;2024-01-06T12:09:42;99113.41;;;22.64;100.00
43757;BME280;73222;41.866;12.462;2024-01-06T12:12:08;99087.91;;;21.34;100.00
43757;BME280;73222;41.866;12.462;2024-01-06T12:14:35;99095.06;;;22.37;100.00
43757;BME280;73222;41.866;12.462;2024-01-06T12:17:00;99077.81;;;21.53;100.00
43757;BME280;73222;41.866;12.462;2024-01-06T12:19:32;99077.81;;;21.13;100.00
43757;BME280;73222;41.866;12.462;2024-01-06T12:21:58;99071.59;;;21.14;100.00
43757;BME280;73222;41.866;12.462;2024-01-06T12:24:25;99064.03;;;21.09;100.00
43757;BME280;73222;41.866;12.462;2024-01-06T12:26:52;99072.59;;;20.98;100.00
43757;BME280;73222;41.866;12.462;2024-01-06T12:29:17;99061.91;;;21.82;100.00
43757;BME280;73222;41.866;12.462;2024-01-06T12:31:43;99047.97;;;21.80;100.00
43757;BME280;73222;41.866;12.462;2024-01-06T12:34:12;99045.81;;;20.50;100.00
43757;BME280;73222;41.866;12.462;2024-01-06T12:36:38;99035.28;;;18.69;100.00
43757;BME280;73222;41.866;12.462;2024-01-06T12:39:05;99037.19;;;17.99;100.00
43757;BME280;73222;41.866;12.462;2024-01-06T12:41:31;99037.84;;;17.16;100.00
43757;BME280;73222;41.866;12.462;2024-01-06T12:43:59;99041.97;;;16.65;100.00